Time;durP1;ratioP1;P1;durP2;ratioP2;P2;SDS_P1;SDS_P2;PMS_P1;PMS_P2;Temp;Humidity;BMP_temperature;BMP_pressure;BME280_temperature;BME280_humidity;BME280_pressure;Samples;Min_cycle;Max_cycle;Signal;HPM_P1;HPM_P2
2021/12/01 07:00:31;;;;;;;37.05;5.85;;;10.20;99.90;;;;;;5894028;23;20050;-81
2021/12/01 07:03:00;;;;;;;37.60;5.03;;;10.20;99.90;;;;;;4970161;28;20098;-83
2021/12/01 07:05:27;;;;;;;36.42;5.32;;;10.10;99.90;;;;;;4968951;28;20042;-83
2021/12/01 07:07:56;;;;;;;34.10;5.20;;;10.10;99.90;;;;;;4969982;28;20054;-85
2021/12/01 07:10:25;;;;;;;37.67;5.35;;;10.10;99.90;;;;;;4969480;28;20042;-82
2021/12/01 07:12:52;;;;;;;27.83;4.63;;;10.10;99.90;;;;;;4970045;28;20155;-83
2021/12/01 07:15:19;;;;;;;37.10;5.00;;;10.10;99.90;;;;;;4968594;28;20153;-82
2021/12/01 07:17:46;;;;;;;30.52;5.47;;;10.10;99.90;;;;;;4969819;28;20431;-84
2021/12/01 07:20:14;;;;;;;47.25;5.10;;;10.10;99.90;;;;;;4969209;28;20474;-84
2021/12/01 07:22:42;;;;;;;40.80;4.80;;;10.10;99.90;;;;;;4969690;28;20051;-84
2021/12/01 07:25:10;;;;;;;34.13;5.03;;;10.10;99.90;;;;;;4969513;28;20294;-85
2021/12/01 07:27:37;;;;;;;25.48;4.72;;;10.10;99.90;;;;;;4970218;28;20058;-85
2021/12/01 07:30:05;;;;;;;31.98;4.95;;;10.00;99.90;;;;;;4970281;28;20102;-86
2021/12/01 07:32:32;;;;;;;40.33;4.50;;;10.00;99.90;;;;;;4968638;28;20076;-85
2021/12/01 07:34:59;;;;;;;38.42;5.05;;;10.00;99.90;;;;;;4968625;28;20054;-88
2021/12/01 07:37:26;;;;;;;35.03;5.30;;;10.00;99.90;;;;;;4968551;28;20043;-85
2021/12/01 07:39:53;;;;;;;32.83;4.80;;;10.00;99.90;;;;;;4969105;28;20043;-85
2021/12/01 07:42:20;;;;;;;42.80;5.18;;;10.00;99.90;;;;;;4968915;28;20133;-85
2021/12/01 07:44:47;;;;;;;38.10;4.85;;;10.10;99.90;;;;;;4968609;28;20102;-85
2021/12/01 07:47:14;;;;;;;39.72;5.13;;;10.10;99.90;;;;;;4970301;28;20042;-85
2021/12/01 07:49:41;;;;;;;31.55;5.22;;;10.20;99.90;;;;;;4971643;28;20051;-85
2021/12/01 07:52:08;;;;;;;23.08;4.22;;;10.20;99.90;;;;;;4970027;28;20129;-85
2021/12/01 07:54:37;;;;;;;26.63;3.13;;;10.20;99.90;;;;;;4972240;28;20050;-85
2021/12/01 07:57:04;;;;;;;21.83;2.85;;;10.20;99.90;;;;;;4987257;28;20566;-85
2021/12/01 07:59:32;;;;;;;18.35;3.20;;;10.10;99.90;;;;;;4971635;28;20047;-85
2021/12/01 08:01:59;;;;;;;24.95;3.28;;;10.10;99.90;;;;;;4965881;28;20051;-84
2021/12/01 08:04:26;;;;;;;19.65;2.33;;;10.10;99.90;;;;;;4971695;28;20117;-87
2021/12/01 08:06:54;;;;;;;21.83;2.60;;;10.10;99.90;;;;;;4974428;28;20444;-85
2021/12/01 08:09:21;;;;;;;23.48;2.92;;;10.00;99.90;;;;;;4973469;28;20050;-86
2021/12/01 08:11:48;;;;;;;19.30;2.55;;;10.00;99.90;;;;;;4972453;28;20415;-85
2021/12/01 08:14:15;;;;;;;19.25;2.67;;;10.00;99.90;;;;;;4973357;28;20110;-85
2021/12/01 08:16:42;;;;;;;20.05;3.40;;;10.00;99.90;;;;;;4973768;28;20051;-85
2021/12/01 08:19:10;;;;;;;22.60;2.58;;;9.90;99.90;;;;;;4972935;28;20081;-85
2021/12/01 08:21:37;;;;;;;20.25;2.45;;;9.90;99.90;;;;;;4972605;28;20043;-86
2021/12/01 08:24:10;;;;;;;26.88;2.97;;;9.90;99.90;;;;;;4973540;28;20051;-84
2021/12/01 08:26:38;;;;;;;18.88;2.55;;;9.90;99.90;;;;;;4974269;28;20467;-85
2021/12/01 08:29:05;;;;;;;19.60;2.43;;;9.90;99.90;;;;;;4968374;28;20120;-85
2021/12/01 08:31:32;;;;;;;17.90;3.00;;;9.90;99.90;;;;;;4973383;28;20050;-85
2021/12/01 08:34:23;;;;;;;14.55;2.15;;;9.90;99.90;;;;;;4960633;28;20093;-86
2021/12/01 08:36:52;;;;;;;23.38;2.92;;;9.90;99.90;;;;;;4973608;28;20046;-84
2021/12/01 08:39:19;;;;;;;19.67;3.00;;;9.90;99.90;;;;;;4971762;28;20571;-86
2021/12/01 08:41:46;;;;;;;15.65;3.35;;;9.90;99.90;;;;;;4958784;28;20043;-87
2021/12/01 08:44:13;;;;;;;23.73;3.83;;;9.90;99.90;;;;;;4964462;28;20054;-87
2021/12/01 08:46:40;;;;;;;25.13;2.80;;;9.90;99.90;;;;;;4972988;28;20046;-86
2021/12/01 08:49:07;;;;;;;21.20;2.63;;;9.90;99.90;;;;;;4972059;28;20062;-86
2021/12/01 08:51:35;;;;;;;21.25;3.03;;;10.00;99.90;;;;;;4973136;28;20050;-85
2021/12/01 08:54:03;;;;;;;22.40;3.00;;;10.00;99.90;;;;;;4953660;28;20054;-85
2021/12/01 08:56:53;;;;;;;16.98;3.05;;;10.00;99.90;;;;;;4969589;28;20738;-86
2021/12/01 08:59:20;;;;;;;17.33;2.90;;;10.10;99.90;;;;;;4970868;28;20047;-85
2021/12/01 09:01:47;;;;;;;23.35;3.10;;;10.10;99.90;;;;;;4969997;28;20078;-86
2021/12/01 09:04:14;;;;;;;24.95;3.15;;;10.20;99.90;;;;;;4969202;28;20045;-86
2021/12/01 09:06:42;;;;;;;19.20;3.15;;;10.20;99.90;;;;;;4971199;28;20573;-85
2021/12/01 09:09:09;;;;;;;23.13;3.78;;;10.20;99.90;;;;;;4971021;28;20141;-84
2021/12/01 09:11:36;;;;;;;25.20;3.92;;;10.30;99.90;;;;;;4970625;28;20074;-85
2021/12/01 09:14:03;;;;;;;17.92;2.85;;;10.40;99.90;;;;;;4970179;28;20066;-84
2021/12/01 09:16:31;;;;;;;19.15;3.38;;;10.40;99.90;;;;;;4970088;28;20043;-85
2021/12/01 09:18:58;;;;;;;37.08;3.22;;;10.40;99.90;;;;;;4969477;28;20139;-84
2021/12/01 09:21:25;;;;;;;21.67;3.85;;;10.50;99.90;;;;;;4970373;28;20042;-86
2021/12/01 09:24:00;;;;;;;26.83;3.92;;;10.50;99.90;;;;;;4970564;28;20065;-86
2021/12/01 09:26:27;;;;;;;17.13;3.13;;;10.60;99.90;;;;;;4969964;28;20586;-86
2021/12/01 09:28:55;;;;;;;19.95;2.78;;;10.60;99.90;;;;;;4965235;28;20054;-85
2021/12/01 09:31:22;;;;;;;9.93;1.58;;;10.50;99.90;;;;;;4969878;28;20094;-86
2021/12/01 09:33:49;;;;;;;13.82;2.47;;;10.40;99.90;;;;;;4970252;28;20043;-86
2021/12/01 09:36:16;;;;;;;12.05;1.40;;;10.20;99.90;;;;;;4970310;28;20074;-89
2021/12/01 09:39:07;;;;;;;12.90;1.80;;;10.00;99.90;;;;;;4953676;28;20049;-89
2021/12/01 09:41:36;;;;;;;11.90;1.75;;;9.80;99.90;;;;;;4957242;28;20070;-87
2021/12/01 09:44:03;;;;;;;16.10;2.00;;;9.70;99.90;;;;;;4960121;28;20043;-88
2021/12/01 09:46:30;;;;;;;12.20;1.75;;;9.60;99.90;;;;;;4968737;28;20717;-87
2021/12/01 09:48:58;;;;;;;12.02;1.67;;;9.50;99.90;;;;;;4973380;28;20109;-86
2021/12/01 09:51:25;;;;;;;12.25;1.73;;;9.50;99.90;;;;;;4972811;28;20098;-86
2021/12/01 09:53:54;;;;;;;16.73;2.65;;;9.40;99.90;;;;;;4972279;28;20101;-85
2021/12/01 09:56:21;;;;;;;14.75;2.35;;;9.40;99.90;;;;;;4971883;28;20117;-86
2021/12/01 09:58:48;;;;;;;11.27;2.13;;;9.40;99.90;;;;;;4972291;28;20074;-86
2021/12/01 10:01:18;;;;;;;23.02;2.33;;;9.40;99.90;;;;;;4971585;28;20078;-87
2021/12/01 10:03:46;;;;;;;21.65;2.63;;;9.40;99.90;;;;;;4971814;28;20038;-86
2021/12/01 10:06:17;;;;;;;16.95;2.42;;;9.50;99.90;;;;;;4972654;28;20110;-86
2021/12/01 10:08:51;;;;;;;17.55;2.58;;;9.60;99.90;;;;;;4972038;28;20479;-86
2021/12/01 10:11:20;;;;;;;12.43;2.38;;;9.70;99.90;;;;;;4972592;28;20503;-88
2021/12/01 10:14:01;;;;;;;15.68;2.90;;;9.70;99.90;;;;;;4972637;28;20043;-87
2021/12/01 10:16:53;;;;;;;15.43;2.58;;;9.70;99.90;;;;;;4971255;28;20098;-88
2021/12/01 10:19:20;;;;;;;16.50;2.65;;;9.70;99.90;;;;;;4964514;28;20475;-87
2021/12/01 10:21:50;;;;;;;18.45;3.25;;;9.60;99.90;;;;;;4971846;28;20566;-89
2021/12/01 10:24:23;;;;;;;21.73;3.63;;;9.60;99.90;;;;;;4971310;28;20078;-86
2021/12/01 10:26:56;;;;;;;16.60;2.28;;;9.60;99.90;;;;;;4972498;28;20047;-88
2021/12/01 10:29:30;;;;;;;18.95;2.42;;;9.60;99.90;;;;;;4971800;28;20423;-86
2021/12/01 10:32:18;;;;;;;17.48;2.83;;;9.60;99.90;;;;;;4970995;28;20558;-86
2021/12/01 10:34:53;;;;;;;20.95;2.40;;;9.60;99.90;;;;;;4971748;28;20090;-86
2021/12/01 10:37:29;;;;;;;18.85;2.78;;;9.70;99.90;;;;;;4971737;28;20125;-85
2021/12/01 10:40:25;;;;;;;24.23;2.78;;;9.70;99.90;;;;;;4972014;28;20086;-86
2021/12/01 10:43:00;;;;;;;25.17;3.45;;;9.80;99.90;;;;;;4962907;28;20046;-86
2021/12/01 10:45:34;;;;;;;20.70;2.90;;;9.90;99.90;;;;;;4971729;28;20039;-87
2021/12/01 10:48:04;;;;;;;21.02;2.83;;;10.00;99.90;;;;;;4971725;28;20082;-85
2021/12/01 10:50:35;;;;;;;14.98;2.72;;;10.10;99.90;;;;;;4971536;28;20042;-84
2021/12/01 10:53:08;;;;;;;22.27;3.00;;;10.20;99.90;;;;;;4972193;28;20050;-86
2021/12/01 10:55:43;;;;;;;16.33;2.85;;;10.30;99.90;;;;;;4970266;28;20047;-85
2021/12/01 10:58:10;;;;;;;23.45;3.40;;;10.40;99.90;;;;;;4951720;28;20055;-85
2021/12/01 11:00:43;;;;;;;21.45;3.50;;;10.60;99.90;;;;;;4952560;28;20051;-86
2021/12/01 11:03:19;;;;;;;12.38;2.05;;;10.70;99.90;;;;;;4951719;28;20551;-85
2021/12/01 11:05:50;;;;;;;23.47;3.67;;;10.70;99.90;;;;;;4969935;28;20054;-83
2021/12/01 11:08:29;;;;;;;21.38;2.83;;;10.70;99.90;;;;;;4970365;28;20055;-86
2021/12/01 11:11:17;;;;;;;30.83;3.60;;;10.80;99.90;;;;;;4971851;28;20058;-84
2021/12/01 11:14:13;;;;;;;24.87;3.53;;;10.80;99.90;;;;;;4961927;28;20075;-84
2021/12/01 11:16:42;;;;;;;28.08;4.07;;;10.80;99.90;;;;;;4960666;28;20507;-85
2021/12/01 11:19:10;;;;;;;25.15;3.78;;;10.80;99.90;;;;;;4970660;28;20059;-85
2021/12/01 11:21:39;;;;;;;27.00;4.28;;;10.80;99.90;;;;;;4973318;28;20068;-84
2021/12/01 11:24:09;;;;;;;24.73;3.80;;;10.80;99.90;;;;;;4972283;28;20664;-85
2021/12/01 11:26:40;;;;;;;20.05;3.95;;;10.70;99.90;;;;;;4974625;28;20523;-85
2021/12/01 11:29:28;;;;;;;24.10;3.42;;;10.70;99.90;;;;;;4958418;28;20054;-83
2021/12/01 11:31:55;;;;;;;25.65;3.80;;;10.70;99.90;;;;;;4965590;28;20396;-85
2021/12/01 11:34:22;;;;;;;28.58;3.40;;;10.70;99.90;;;;;;4973164;28;20042;-84
2021/12/01 11:36:52;;;;;;;26.42;3.67;;;10.70;99.90;;;;;;4973767;28;20047;-84
2021/12/01 11:39:24;;;;;;;23.10;3.40;;;10.70;99.90;;;;;;4973611;28;20720;-84
2021/12/01 11:41:54;;;;;;;23.45;3.30;;;10.80;99.90;;;;;;4974020;28;20464;-85
2021/12/01 11:44:22;;;;;;;21.45;3.38;;;10.80;99.90;;;;;;4973299;28;20062;-84
2021/12/01 11:46:50;;;;;;;20.25;3.40;;;10.90;99.90;;;;;;4973706;28;20109;-84
2021/12/01 11:49:18;;;;;;;16.37;2.97;;;10.90;99.90;;;;;;4972984;28;20058;-84
2021/12/01 11:52:08;;;;;;;14.65;3.00;;;11.00;99.90;;;;;;4972977;28;20467;-86
2021/12/01 11:54:43;;;;;;;21.58;2.90;;;11.00;99.90;;;;;;4970268;28;20039;-84
2021/12/01 11:57:11;;;;;;;23.70;3.67;;;11.10;99.90;;;;;;4954243;28;20047;-82
2021/12/01 11:59:43;;;;;;;19.35;3.05;;;11.10;99.90;;;;;;4969239;28;20043;-84
2021/12/01 12:02:24;;;;;;;27.55;4.05;;;11.20;99.90;;;;;;4972378;28;20093;-84
2021/12/01 12:04:57;;;;;;;16.05;2.63;;;11.30;99.90;;;;;;4973638;28;20090;-83
2021/12/01 12:07:27;;;;;;;17.23;2.70;;;11.30;99.90;;;;;;4973228;28;20054;-84
2021/12/01 12:10:05;;;;;;;11.15;1.75;;;11.20;99.90;;;;;;4973387;28;20047;-83
2021/12/01 12:13:04;;;;;;;9.20;1.65;;;11.10;99.90;;;;;;4969311;28;20039;-84
2021/12/01 12:15:46;;;;;;;11.77;2.03;;;10.90;99.90;;;;;;4972352;28;20492;-84
2021/12/01 12:18:33;;;;;;;16.00;2.13;;;10.80;99.90;;;;;;4970285;28;20062;-84
2021/12/01 12:21:12;;;;;;;16.90;2.25;;;10.70;99.90;;;;;;4972104;28;20046;-85
2021/12/01 12:23:40;;;;;;;18.55;2.63;;;10.70;99.90;;;;;;4971056;28;20047;-84
2021/12/01 12:26:10;;;;;;;20.55;2.60;;;10.60;99.90;;;;;;4970846;28;20107;-84
2021/12/01 12:28:42;;;;;;;14.75;2.45;;;10.60;99.90;;;;;;4966569;28;20102;-84
2021/12/01 12:31:18;;;;;;;22.60;3.10;;;10.60;99.90;;;;;;4955437;28;20046;-83
2021/12/01 12:34:12;;;;;;;22.77;3.47;;;10.60;99.90;;;;;;4971144;28;20046;-85
2021/12/01 12:36:41;;;;;;;19.77;3.35;;;10.60;99.90;;;;;;4951089;28;20098;-84
2021/12/01 12:39:20;;;;;;;17.92;3.10;;;10.70;99.90;;;;;;4972090;28;20050;-83
2021/12/01 12:41:55;;;;;;;21.88;3.63;;;10.80;99.90;;;;;;4969155;28;20070;-83
2021/12/01 12:44:47;;;;;;;22.90;3.70;;;10.80;99.90;;;;;;4971123;28;20054;-83
2021/12/01 12:47:27;;;;;;;22.00;3.33;;;10.90;99.90;;;;;;4965067;28;20047;-85
2021/12/01 12:50:14;;;;;;;20.50;3.00;;;10.90;99.90;;;;;;4963911;28;20046;-85
2021/12/01 12:52:51;;;;;;;20.00;3.10;;;10.90;99.90;;;;;;4972874;28;20062;-83
2021/12/01 12:55:23;;;;;;;22.65;3.08;;;10.90;99.90;;;;;;4971708;28;20070;-86
2021/12/01 12:57:58;;;;;;;18.38;2.78;;;11.00;99.90;;;;;;4972867;28;20043;-84
2021/12/01 13:00:34;;;;;;;19.70;2.95;;;11.00;99.90;;;;;;4972129;28;20461;-84
2021/12/01 13:03:19;;;;;;;26.85;3.92;;;11.00;99.90;;;;;;4970731;28;20093;-84
2021/12/01 13:05:58;;;;;;;18.88;2.85;;;11.10;99.90;;;;;;4972566;28;20043;-84
2021/12/01 13:08:36;;;;;;;26.17;3.17;;;11.00;99.90;;;;;;4971920;28;20062;-87
2021/12/01 13:11:06;;;;;;;11.98;2.58;;;10.70;99.90;;;;;;4973723;28;20046;-88
2021/12/01 13:13:45;;;;;;;15.77;2.78;;;10.20;99.90;;;;;;4973154;28;20102;-88
2021/12/01 13:16:15;;;;;;;;;;;9.80;99.90;;;;;;4973609;28;20404;-86
2021/12/01 13:18:47;;;;;;;21.67;2.83;;;9.60;99.90;;;;;;4974110;28;20321;-85
2021/12/01 13:21:19;;;;;;;17.02;2.92;;;9.50;99.90;;;;;;4972989;28;20582;-86
2021/12/01 13:23:51;;;;;;;23.45;3.05;;;9.50;99.90;;;;;;4967693;28;20087;-83
2021/12/01 13:26:21;;;;;;;22.77;4.13;;;9.40;99.90;;;;;;4956090;28;20058;-83
2021/12/01 13:28:55;;;;;;;16.55;2.40;;;9.40;99.90;;;;;;4958884;28;20047;-83
2021/12/01 13:31:32;;;;;;;22.58;2.80;;;9.40;99.90;;;;;;4963950;28;20047;-83
2021/12/01 13:34:23;;;;;;;16.27;2.50;;;9.40;99.90;;;;;;4963082;28;20050;-82
2021/12/01 13:36:57;;;;;;;18.85;2.45;;;9.40;99.90;;;;;;4955573;28;20039;-84
2021/12/01 13:39:27;;;;;;;21.92;3.05;;;9.50;99.90;;;;;;4958878;28;20141;-82
2021/12/01 13:42:07;;;;;;;15.23;2.03;;;9.50;99.90;;;;;;4969757;28;20050;-83
2021/12/01 13:44:38;;;;;;;17.80;2.40;;;9.60;99.90;;;;;;4970182;28;20042;-82
2021/12/01 13:47:23;;;;;;;16.83;2.92;;;9.70;99.90;;;;;;4966356;28;20050;-81
2021/12/01 13:49:52;;;;;;;18.17;2.60;;;9.70;99.90;;;;;;4967183;28;20050;-84
2021/12/01 13:52:26;;;;;;;;;;;9.80;99.90;;;;;;4961152;28;20051;-81
2021/12/01 13:54:55;;;;;;;18.00;2.85;;;9.90;99.90;;;;;;4965955;28;19930;-81
2021/12/01 13:57:22;;;;;;;19.15;2.90;;;9.90;99.90;;;;;;4958633;28;20496;-82
2021/12/01 13:59:52;;;;;;;23.48;2.95;;;10.00;99.90;;;;;;4962259;28;20057;-81
2021/12/01 14:02:24;;;;;;;21.05;3.00;;;10.10;99.90;;;;;;4946520;28;20043;-81
2021/12/01 14:04:53;;;;;;;15.10;2.30;;;10.20;99.90;;;;;;4947723;29;20336;-82
2021/12/01 14:07:22;;;;;;;12.43;2.17;;;10.20;99.90;;;;;;4939529;28;20050;-86
2021/12/01 14:09:56;;;;;;;11.02;1.58;;;9.80;99.90;;;;;;4925893;29;20107;-84
2021/12/01 14:12:34;;;;;;;12.32;1.60;;;9.60;99.90;;;;;;4943798;28;20058;-82
2021/12/01 14:15:02;;;;;;;13.23;2.33;;;9.40;99.90;;;;;;4937692;29;20457;-82
2021/12/01 14:17:29;;;;;;;14.97;2.00;;;9.30;99.90;;;;;;4942850;28;20054;-85
2021/12/01 14:20:00;;;;;;;21.02;2.83;;;9.40;99.90;;;;;;4942109;28;20051;-84
2021/12/01 14:22:27;;;;;;;21.05;2.80;;;9.40;99.90;;;;;;4929033;29;20043;-82
2021/12/01 14:24:57;;;;;;;17.30;3.05;;;9.50;99.90;;;;;;4925867;29;20056;-84
2021/12/01 14:27:34;;;;;;;30.88;4.47;;;9.60;99.90;;;;;;4944548;28;20102;-85
2021/12/01 14:30:08;;;;;;;30.90;4.53;;;9.70;99.90;;;;;;4942694;28;20047;-83
2021/12/01 14:32:36;;;;;;;18.73;3.42;;;9.80;99.90;;;;;;4943671;28;20059;-81
2021/12/01 14:35:06;;;;;;;20.15;3.03;;;9.80;99.90;;;;;;4944361;28;20123;-82
2021/12/01 14:37:36;;;;;;;18.05;3.40;;;9.80;99.90;;;;;;4925296;29;20047;-83
2021/12/01 14:40:18;;;;;;;20.23;2.40;;;9.70;99.90;;;;;;4943691;29;20050;-82
2021/12/01 14:42:50;;;;;;;13.50;2.67;;;9.70;99.90;;;;;;4924486;29;20531;-82
2021/12/01 14:45:22;;;;;;;17.58;2.53;;;9.60;99.90;;;;;;4941997;28;20043;-82
2021/12/01 14:48:21;;;;;;;14.68;2.10;;;9.60;99.90;;;;;;4946080;28;20580;-82
2021/12/01 14:50:56;;;;;;;18.27;3.05;;;9.60;99.90;;;;;;4844367;29;20057;-84
2021/12/01 14:53:25;;;;;;;28.40;3.38;;;9.60;99.90;;;;;;4846854;29;20081;-82
2021/12/01 14:55:52;;;;;;;24.95;3.70;;;9.60;99.90;;;;;;4852901;29;20064;-82
2021/12/01 14:58:19;;;;;;;19.80;3.45;;;9.70;99.90;;;;;;4852223;29;20150;-81
2021/12/01 15:00:57;;;;;;;22.50;4.63;;;9.80;99.90;;;;;;4865253;29;20073;-83
2021/12/01 15:03:24;;;;;;;25.50;3.83;;;9.80;99.90;;;;;;4895103;29;20119;-82
2021/12/01 15:05:57;;;;;;;28.48;3.65;;;9.90;99.90;;;;;;4892939;29;20059;-82
2021/12/01 15:08:29;;;;;;;13.50;2.28;;;9.90;99.90;;;;;;4890790;29;20509;-82
2021/12/01 15:11:11;;;;;;;13.95;1.88;;;9.80;99.90;;;;;;4892458;29;20123;-83
2021/12/01 15:13:44;;;;;;;11.85;1.85;;;9.70;99.90;;;;;;4890986;29;20097;-82
2021/12/01 15:16:26;;;;;;;9.40;1.95;;;9.60;99.90;;;;;;4887800;29;20053;-82
2021/12/01 15:19:15;;;;;;;14.50;2.17;;;9.50;99.90;;;;;;4890109;29;20052;-85
2021/12/01 15:21:49;;;;;;;14.77;1.98;;;9.40;99.90;;;;;;4870858;29;20052;-81
2021/12/01 15:24:24;;;;;;;13.35;2.13;;;9.40;99.90;;;;;;4890050;29;20060;-82
2021/12/01 15:26:56;;;;;;;14.32;1.92;;;9.20;99.90;;;;;;4933954;28;20050;-82
2021/12/01 15:29:29;;;;;;;11.55;1.92;;;9.10;99.90;;;;;;4962439;28;20082;-82
2021/12/01 15:32:06;;;;;;;11.23;2.38;;;9.00;99.90;;;;;;4960443;28;20047;-81
2021/12/01 15:34:33;;;;;;;15.98;2.28;;;9.00;99.90;;;;;;4964030;28;20043;-82
2021/12/01 15:37:01;;;;;;;14.38;2.33;;;8.90;99.90;;;;;;4963720;28;20511;-82
2021/12/01 15:39:29;;;;;;;10.25;2.17;;;8.90;99.90;;;;;;4962908;28;20809;-82
2021/12/01 15:41:59;;;;;;;17.75;2.58;;;8.90;99.90;;;;;;4969151;28;20042;-82
2021/12/01 15:44:27;;;;;;;13.68;2.17;;;8.90;99.90;;;;;;4966129;28;20042;-82
2021/12/01 15:46:55;;;;;;;16.50;2.65;;;8.80;99.90;;;;;;4968656;28;20046;-80
2021/12/01 15:49:23;;;;;;;16.77;2.50;;;8.80;99.90;;;;;;4965004;28;20115;-81
2021/12/01 15:51:51;;;;;;;16.63;3.00;;;8.80;99.90;;;;;;4963281;28;20103;-82
2021/12/01 15:54:21;;;;;;;20.63;3.60;;;8.80;99.90;;;;;;4951419;28;20110;-81
2021/12/01 15:56:51;;;;;;;27.13;3.35;;;8.80;99.90;;;;;;4964339;28;20094;-86
2021/12/01 15:59:18;;;;;;;15.70;2.75;;;8.80;99.90;;;;;;4961834;28;20051;-82
2021/12/01 16:01:51;;;;;;;21.48;2.58;;;8.60;99.90;;;;;;4970455;28;20735;-85
2021/12/01 16:04:20;;;;;;;16.88;2.53;;;8.40;99.90;;;;;;4968214;28;20042;-85
2021/12/01 16:06:48;;;;;;;9.40;2.88;;;8.30;99.90;;;;;;4965348;28;20047;-84
2021/12/01 16:09:16;;;;;;;22.27;3.28;;;8.20;99.90;;;;;;4963010;28;20419;-84
2021/12/01 16:11:45;;;;;;;22.70;3.17;;;8.20;99.90;;;;;;4968688;28;20055;-83
2021/12/01 16:14:15;;;;;;;17.02;2.50;;;8.10;99.90;;;;;;4969855;28;20046;-83
2021/12/01 16:16:45;;;;;;;18.35;2.42;;;8.10;99.90;;;;;;4967939;28;20097;-82
2021/12/01 16:19:13;;;;;;;17.05;2.20;;;8.10;99.90;;;;;;4962533;28;20106;-84
2021/12/01 16:21:40;;;;;;;21.70;2.90;;;8.00;99.90;;;;;;4970208;28;20043;-82
2021/12/01 16:24:07;;;;;;;21.95;2.75;;;8.00;99.90;;;;;;4969028;28;20502;-83
2021/12/01 16:26:34;;;;;;;17.13;2.38;;;7.90;99.90;;;;;;4968200;28;20613;-83
2021/12/01 16:29:01;;;;;;;18.75;2.63;;;7.90;99.90;;;;;;4969622;28;20059;-83
2021/12/01 16:31:29;;;;;;;11.05;2.08;;;7.90;99.90;;;;;;4968976;28;20512;-83
2021/12/01 16:33:57;;;;;;;11.43;2.40;;;7.90;99.90;;;;;;4969617;28;20105;-82
2021/12/01 16:36:27;;;;;;;13.73;2.45;;;7.80;99.90;;;;;;4970858;28;20055;-82
2021/12/01 16:38:56;;;;;;;8.93;2.28;;;7.80;99.90;;;;;;4969417;28;20105;-83
2021/12/01 16:41:24;;;;;;;9.85;2.50;;;7.80;99.90;;;;;;4968144;28;20503;-82
2021/12/01 16:43:50;;;;;;;12.25;1.80;;;7.80;99.90;;;;;;4968264;28;20039;-83
2021/12/01 16:46:17;;;;;;;12.20;1.90;;;7.80;99.90;;;;;;4968695;28;20063;-83
2021/12/01 16:48:45;;;;;;;15.30;2.35;;;7.80;99.90;;;;;;4966141;28;20090;-85
2021/12/01 16:51:12;;;;;;;14.88;2.67;;;7.80;99.90;;;;;;4970261;28;20137;-82
2021/12/01 16:53:39;;;;;;;10.80;1.80;;;7.80;99.90;;;;;;4968150;28;20043;-81
2021/12/01 16:56:06;;;;;;;16.00;2.45;;;7.80;99.90;;;;;;4968371;28;20053;-83
2021/12/01 16:58:34;;;;;;;11.43;1.85;;;7.80;99.90;;;;;;4968559;28;20097;-81
2021/12/01 17:01:02;;;;;;;16.52;2.03;;;7.80;99.90;;;;;;4966927;28;20175;-81
2021/12/01 17:03:41;;;;;;;10.68;1.98;;;7.70;99.90;;;;;;4969666;28;20466;-81
2021/12/01 17:06:10;;;;;;;15.13;2.05;;;7.70;99.90;;;;;;4969775;28;20566;-82
2021/12/01 17:11:04;;;;;;;12.50;2.25;;;7.70;99.90;;;;;;4967219;28;20051;-79
2021/12/01 17:13:32;;;;;;;15.73;2.22;;;7.70;99.90;;;;;;4965483;28;20093;-81
2021/12/01 17:16:00;;;;;;;14.75;2.35;;;7.70;99.90;;;;;;4969589;28;20051;-80
2021/12/01 17:18:28;;;;;;;14.57;2.55;;;7.70;99.90;;;;;;4968679;28;20038;-81
2021/12/01 17:20:56;;;;;;;16.85;3.00;;;7.60;99.90;;;;;;4968516;28;20515;-80
2021/12/01 17:23:23;;;;;;;14.30;3.80;;;7.60;99.90;;;;;;4967886;28;20054;-81
2021/12/01 17:25:51;;;;;;;12.32;2.33;;;7.50;99.90;;;;;;4968546;28;20046;-80
2021/12/01 17:28:19;;;;;;;11.50;1.77;;;7.50;99.90;;;;;;4966578;28;20047;-81
2021/12/01 17:30:51;;;;;;;18.42;3.10;;;7.50;99.90;;;;;;4969015;28;20053;-82
2021/12/01 17:33:18;;;;;;;18.48;2.85;;;7.50;99.90;;;;;;4965901;28;20042;-80
2021/12/01 17:36:09;;;;;;;9.93;1.80;;;7.40;99.90;;;;;;4970230;28;20044;-80
2021/12/01 17:38:36;;;;;;;17.08;2.63;;;7.40;99.90;;;;;;4969598;28;20101;-81
2021/12/01 17:41:04;;;;;;;20.63;2.90;;;7.40;99.90;;;;;;4962372;28;20054;-81
2021/12/01 17:43:33;;;;;;;24.85;3.38;;;7.40;99.90;;;;;;4968487;28;20043;-81
2021/12/01 17:46:01;;;;;;;27.08;4.03;;;7.50;99.90;;;;;;4970670;28;20050;-81
2021/12/01 17:48:30;;;;;;;30.30;4.90;;;7.50;99.90;;;;;;4963068;28;20138;-81
2021/12/01 17:50:59;;;;;;;26.65;4.05;;;7.50;99.90;;;;;;4968998;28;20281;-82
2021/12/01 17:53:37;;;;;;;20.17;3.53;;;7.50;99.90;;;;;;4968586;28;20129;-83
2021/12/01 17:56:04;;;;;;;25.95;3.60;;;7.50;99.90;;;;;;4961837;28;20124;-81
2021/12/01 17:58:31;;;;;;;16.85;2.75;;;7.60;99.90;;;;;;4969865;28;20042;-82
2021/12/01 18:01:00;;;;;;;24.17;2.53;;;7.60;99.90;;;;;;4968092;28;20059;-83
2021/12/01 18:03:27;;;;;;;;;;;7.60;99.90;;;;;;4964258;28;20122;-82
2021/12/01 18:05:56;;;;;;;24.00;3.20;;;7.60;99.90;;;;;;4967743;28;19932;-83
2021/12/01 18:08:23;;;;;;;19.45;3.75;;;7.60;99.90;;;;;;4966747;28;20050;-83
2021/12/01 18:10:51;;;;;;;24.83;3.53;;;7.60;99.90;;;;;;4969017;28;20419;-82
2021/12/01 18:13:18;;;;;;;19.98;3.28;;;7.60;99.90;;;;;;4968363;28;20097;-83
2021/12/01 18:15:45;;;;;;;24.38;2.95;;;7.50;99.90;;;;;;4968942;28;20094;-83
2021/12/01 18:18:17;;;;;;;25.98;3.60;;;7.50;99.90;;;;;;4968929;28;20051;-81
2021/12/01 18:20:45;;;;;;;24.13;4.40;;;7.50;99.90;;;;;;4968396;28;20043;-82
2021/12/01 18:23:12;;;;;;;31.83;3.70;;;7.50;99.90;;;;;;4968288;28;20423;-82
2021/12/01 18:25:40;;;;;;;56.53;17.23;;;7.50;99.90;;;;;;4968244;28;20085;-82
2021/12/01 18:28:07;;;;;;;30.08;4.85;;;7.50;99.90;;;;;;4959512;28;20570;-82
2021/12/01 18:30:34;;;;;;;32.20;4.07;;;7.50;99.90;;;;;;4967101;28;20050;-82
2021/12/01 18:33:03;;;;;;;23.58;4.00;;;7.50;99.90;;;;;;4969028;28;20050;-81
2021/12/01 18:35:30;;;;;;;33.25;5.45;;;7.50;99.90;;;;;;4962567;28;20089;-80
2021/12/01 18:37:57;;;;;;;32.97;10.10;;;7.50;99.90;;;;;;4968929;28;20050;-82
2021/12/01 18:40:25;;;;;;;28.83;5.53;;;7.60;99.90;;;;;;4967443;28;20101;-83
2021/12/01 18:42:54;;;;;;;25.13;3.70;;;7.60;99.90;;;;;;4967949;28;20110;-82
2021/12/01 18:45:21;;;;;;;;;;;7.60;99.90;;;;;;4966078;28;20047;-81
2021/12/01 18:47:50;;;;;;;20.98;3.45;;;7.60;99.90;;;;;;4965195;28;20008;-80
2021/12/01 18:50:18;;;;;;;20.38;2.60;;;7.60;99.90;;;;;;4964764;28;20051;-80
2021/12/01 18:52:45;;;;;;;17.95;3.92;;;7.70;99.90;;;;;;4967650;28;20562;-79
2021/12/01 18:55:14;;;;;;;23.40;2.92;;;7.70;99.90;;;;;;4959114;28;20051;-80
2021/12/01 18:58:01;;;;;;;20.23;3.60;;;7.70;99.90;;;;;;4966731;28;20065;-80
2021/12/01 19:00:30;;;;;;;26.17;3.25;;;7.70;99.90;;;;;;4966656;28;20937;-81
2021/12/01 19:03:04;;;;;;;29.15;4.13;;;7.60;99.90;;;;;;4967257;28;20109;-79
2021/12/01 19:05:31;;;;;;;25.77;3.58;;;7.50;99.90;;;;;;4933195;28;20126;-82
2021/12/01 19:07:59;;;;;;;30.48;3.67;;;7.50;99.90;;;;;;4951777;28;20047;-80
2021/12/01 19:10:30;;;;;;;30.67;4.03;;;7.50;99.90;;;;;;4957924;28;20050;-82
2021/12/01 19:12:58;;;;;;;24.27;3.50;;;7.40;99.90;;;;;;4963587;28;20047;-80
2021/12/01 19:15:25;;;;;;;11.68;2.10;;;7.50;99.90;;;;;;4964111;28;20047;-79
2021/12/01 19:17:53;;;;;;;25.20;3.45;;;7.50;99.90;;;;;;4962034;28;20109;-79
2021/12/01 19:20:21;;;;;;;14.20;2.40;;;7.40;99.90;;;;;;4959264;28;20570;-80
2021/12/01 19:22:49;;;;;;;16.70;2.95;;;7.50;99.90;;;;;;4960948;28;20146;-79
2021/12/01 19:25:18;;;;;;;16.83;3.10;;;7.50;99.90;;;;;;4962415;28;20511;-81
2021/12/01 19:27:46;;;;;;;15.05;2.20;;;7.40;99.90;;;;;;4959769;28;20047;-79
2021/12/01 19:30:16;;;;;;;20.27;2.55;;;7.40;99.90;;;;;;4963048;28;20058;-80
2021/12/01 19:32:45;;;;;;;16.02;2.85;;;7.40;99.90;;;;;;4959579;28;20113;-78
2021/12/01 19:35:14;;;;;;;16.92;3.08;;;7.40;99.90;;;;;;4957234;28;20133;-80
2021/12/01 19:37:42;;;;;;;15.95;3.15;;;7.40;99.90;;;;;;4962779;28;20106;-81
2021/12/01 19:40:12;;;;;;;13.77;2.80;;;7.40;99.90;;;;;;4962938;28;20055;-83
2021/12/01 19:42:39;;;;;;;15.55;2.63;;;7.40;99.90;;;;;;4966162;28;20057;-81
2021/12/01 19:45:23;;;;;;;16.08;3.35;;;7.40;99.90;;;;;;4976517;28;20047;-83
2021/12/01 19:47:51;;;;;;;21.33;2.90;;;7.30;99.90;;;;;;4960931;28;20485;-83
2021/12/01 19:50:19;;;;;;;19.77;2.88;;;7.30;99.90;;;;;;4954468;28;20555;-82
2021/12/01 19:52:48;;;;;;;19.95;2.70;;;7.30;99.90;;;;;;4963749;28;22008;-83
2021/12/01 19:55:21;;;;;;;15.27;2.50;;;7.30;99.90;;;;;;4964393;28;20729;-82
2021/12/01 19:57:51;;;;;;;14.05;2.50;;;7.30;99.90;;;;;;4966231;28;20808;-82
2021/12/01 20:00:21;;;;;;;19.25;3.13;;;7.30;99.90;;;;;;4966083;28;20046;-85
2021/12/01 20:02:48;;;;;;;22.55;3.47;;;7.30;99.90;;;;;;4965694;28;20057;-81
2021/12/01 20:05:16;;;;;;;19.55;2.50;;;7.30;99.90;;;;;;4966977;28;20054;-83
2021/12/01 20:07:46;;;;;;;28.83;3.90;;;7.40;99.90;;;;;;4967136;28;20050;-83